createdAt,value
2019-01-12T00:01:34.721Z,12.95
2019-01-12T00:04:03.583Z,12.90
2019-01-12T00:06:32.654Z,11.40
2019-01-12T00:09:01.105Z,11.10
2019-01-12T00:11:29.793Z,12.43
2019-01-12T00:13:58.450Z,12.82
2019-01-12T00:16:26.797Z,13.18
2019-01-12T00:18:56.162Z,12.07
2019-01-12T00:21:24.694Z,12.40
2019-01-12T00:23:53.069Z,12.00
2019-01-12T00:26:21.629Z,12.68
2019-01-12T00:28:50.001Z,12.85
2019-01-12T00:31:18.462Z,12.70
2019-01-12T00:33:47.041Z,11.93
2019-01-12T00:36:16.081Z,12.07
2019-01-12T00:38:44.444Z,13.72
2019-01-12T00:41:13.762Z,12.75
2019-01-12T00:43:42.577Z,13.05
2019-01-12T00:46:10.939Z,12.40
2019-01-12T00:48:39.278Z,13.53
2019-01-12T00:51:09.469Z,12.33
2019-01-12T00:53:37.926Z,11.97
2019-01-12T00:56:06.383Z,12.63
2019-01-12T00:58:36.543Z,12.93
2019-01-12T01:01:06.723Z,14.07
2019-01-12T01:03:35.193Z,13.22
2019-01-12T01:06:03.762Z,13.03
2019-01-12T01:08:32.223Z,14.15
2019-01-12T01:11:00.910Z,14.03
2019-01-12T01:13:29.378Z,14.20
2019-01-12T01:15:59.535Z,13.43
2019-01-12T01:18:27.910Z,15.20
2019-01-12T01:20:56.268Z,14.13
2019-01-12T01:23:24.635Z,12.75
2019-01-12T01:25:52.990Z,14.98
2019-01-12T01:28:21.358Z,14.25
2019-01-12T01:30:49.811Z,13.83
2019-01-12T01:33:18.364Z,13.10
2019-01-12T01:35:46.809Z,13.43
2019-01-12T01:38:15.263Z,14.15
2019-01-12T01:40:43.722Z,14.50
2019-01-12T01:43:12.089Z,12.55
2019-01-12T01:45:40.449Z,13.28
2019-01-12T01:48:08.898Z,13.85
2019-01-12T01:50:37.367Z,12.80
2019-01-12T01:53:05.741Z,12.25
2019-01-12T01:55:34.093Z,14.70
2019-01-12T01:58:02.540Z,11.22
2019-01-12T02:00:30.912Z,12.73
2019-01-12T02:02:59.476Z,10.35
2019-01-12T02:05:27.849Z,11.05
2019-01-12T02:07:56.225Z,11.20
2019-01-12T02:10:24.682Z,9.73
2019-01-12T02:12:53.330Z,11.73
2019-01-12T02:15:22.077Z,10.45
2019-01-12T02:17:50.652Z,9.90
2019-01-12T02:20:19.132Z,11.83
2019-01-12T02:22:47.683Z,10.70
2019-01-12T02:25:16.123Z,11.48
2019-01-12T02:27:44.474Z,10.18
2019-01-12T02:30:23.684Z,11.00
2019-01-12T02:32:53.466Z,11.03
2019-01-12T02:35:21.926Z,11.10
2019-01-12T02:37:50.277Z,12.13
2019-01-12T02:40:19.152Z,11.90
2019-01-12T02:42:47.615Z,9.90
2019-01-12T02:45:16.911Z,11.40
2019-01-12T02:47:45.246Z,10.32
2019-01-12T02:50:13.749Z,11.12
2019-01-12T02:52:42.297Z,9.73
2019-01-12T02:55:10.744Z,10.43
2019-01-12T02:57:39.207Z,9.18
2019-01-12T03:00:18.881Z,11.15
2019-01-12T03:02:49.577Z,10.18
2019-01-12T03:05:18.033Z,10.82
2019-01-12T03:07:46.522Z,9.78
2019-01-12T03:10:16.854Z,10.85
2019-01-12T03:12:45.416Z,11.22
2019-01-12T03:15:16.808Z,10.28
2019-01-12T03:17:45.146Z,9.90
2019-01-12T03:20:16.424Z,10.88
2019-01-12T03:22:45.016Z,11.55
2019-01-12T03:25:18.528Z,11.25
2019-01-12T03:27:45.567Z,11.50
2019-01-12T03:30:17.463Z,10.40
2019-01-12T03:32:46.000Z,12.00
2019-01-12T03:35:14.437Z,11.28
2019-01-12T03:37:43.108Z,8.90
2019-01-12T03:40:15.850Z,10.43
2019-01-12T03:42:44.265Z,9.38
2019-01-12T03:45:14.749Z,11.08
2019-01-12T03:47:44.934Z,9.55
2019-01-12T03:50:14.068Z,9.73
2019-01-12T03:52:42.640Z,9.78
2019-01-12T03:55:13.017Z,10.58
2019-01-12T03:57:41.567Z,9.80
2019-01-12T04:00:16.289Z,9.13
2019-01-12T04:02:44.816Z,9.08
2019-01-12T04:05:13.402Z,9.13
2019-01-12T04:07:41.853Z,9.03
2019-01-12T04:10:10.573Z,8.65
2019-01-12T04:12:40.792Z,8.08
2019-01-12T04:15:09.629Z,8.40
2019-01-12T04:17:38.900Z,9.60
2019-01-12T04:20:10.714Z,8.98
2019-01-12T04:22:39.271Z,7.75
2019-01-12T04:25:08.623Z,8.08
2019-01-12T04:27:37.698Z,8.68
2019-01-12T04:30:10.548Z,7.37
2019-01-12T04:32:39.051Z,7.87
2019-01-12T04:35:07.541Z,7.70
2019-01-12T04:37:35.992Z,8.75
2019-01-12T04:40:06.732Z,7.03
2019-01-12T04:42:35.294Z,8.40
2019-01-12T04:45:05.025Z,7.80
2019-01-12T04:47:33.500Z,8.60
2019-01-12T04:50:01.875Z,8.90
2019-01-12T04:52:30.311Z,8.70
2019-01-12T04:54:58.775Z,8.10
2019-01-12T04:57:27.127Z,8.15
2019-01-12T04:59:57.323Z,8.43
2019-01-12T05:02:25.821Z,8.75
2019-01-12T05:04:54.174Z,8.60
2019-01-12T05:07:23.441Z,8.90
2019-01-12T05:09:52.350Z,7.80
2019-01-12T05:12:22.412Z,8.05
2019-01-12T05:14:50.762Z,8.58
2019-01-12T05:17:19.123Z,9.38
2019-01-12T05:19:47.580Z,11.05
2019-01-12T05:22:16.114Z,9.73
2019-01-12T05:24:44.581Z,9.65
2019-01-12T05:27:13.225Z,9.88
2019-01-12T05:29:41.830Z,9.25
2019-01-12T05:32:10.329Z,8.45
2019-01-12T05:34:38.775Z,8.70
2019-01-12T05:37:08.149Z,9.10
2019-01-12T05:39:36.496Z,8.05
2019-01-12T05:42:05.000Z,8.20
2019-01-12T05:44:33.481Z,7.45
2019-01-12T05:47:01.943Z,7.35
2019-01-12T05:49:30.313Z,8.95
2019-01-12T05:51:58.813Z,7.15
2019-01-12T05:54:27.177Z,7.60
2019-01-12T05:56:55.525Z,8.30
2019-01-12T05:59:27.837Z,7.40
2019-01-12T06:01:56.299Z,7.65
2019-01-12T06:04:25.396Z,8.85
2019-01-12T06:06:54.893Z,10.15
2019-01-12T06:09:23.257Z,7.90
2019-01-12T06:11:51.792Z,8.58
2019-01-12T06:14:20.139Z,9.40
2019-01-12T06:16:48.635Z,10.68
2019-01-12T06:19:16.982Z,9.78
2019-01-12T06:21:45.704Z,10.13
2019-01-12T06:24:14.287Z,10.00
2019-01-12T06:26:42.746Z,11.50
2019-01-12T06:29:11.204Z,9.55
2019-01-12T06:31:39.587Z,10.35
2019-01-12T06:34:08.115Z,12.00
2019-01-12T06:36:36.472Z,10.72
2019-01-12T06:39:08.535Z,10.43
2019-01-12T06:41:38.038Z,9.75
2019-01-12T06:44:06.489Z,9.38
2019-01-12T06:46:34.990Z,9.58
2019-01-12T06:49:03.659Z,9.33
2019-01-12T06:51:32.092Z,10.40
2019-01-12T06:54:00.471Z,8.70
2019-01-12T06:56:28.847Z,10.32
2019-01-12T06:58:57.696Z,11.60
2019-01-12T07:01:26.250Z,10.93
2019-01-12T07:03:54.557Z,10.50
2019-01-12T07:06:24.643Z,11.25
2019-01-12T07:08:53.259Z,11.40
2019-01-12T07:11:21.645Z,11.22
2019-01-12T07:13:52.275Z,13.00
2019-01-12T07:16:21.265Z,11.83
2019-01-12T07:18:49.886Z,12.05
2019-01-12T07:21:20.387Z,13.05
2019-01-12T07:23:48.922Z,11.00
2019-01-12T07:26:17.773Z,12.28
2019-01-12T07:28:46.283Z,13.43
2019-01-12T07:31:14.958Z,11.10
2019-01-12T07:33:44.363Z,11.45
2019-01-12T07:36:13.312Z,12.03
2019-01-12T07:38:42.018Z,12.23
2019-01-12T07:41:10.716Z,12.53
2019-01-12T07:43:39.079Z,12.50
2019-01-12T07:46:07.649Z,12.23
2019-01-12T07:48:36.009Z,13.85
2019-01-12T07:51:04.363Z,11.97
2019-01-12T07:53:33.053Z,11.28
2019-01-12T07:56:01.605Z,13.20
2019-01-12T07:58:29.986Z,12.25
2019-01-12T08:00:58.346Z,11.65
2019-01-12T08:03:26.859Z,12.45
2019-01-12T08:05:55.322Z,12.05
2019-01-12T08:08:23.724Z,12.60
2019-01-12T08:10:52.181Z,11.93
2019-01-12T08:13:20.582Z,16.50
2019-01-12T08:15:49.506Z,17.67
2019-01-12T08:18:18.094Z,20.05
2019-01-12T08:20:46.672Z,19.73
2019-01-12T08:23:15.298Z,16.10
2019-01-12T08:25:44.133Z,16.62
2019-01-12T08:28:12.554Z,14.98
2019-01-12T08:30:41.027Z,15.30
2019-01-12T08:33:09.608Z,14.35
2019-01-12T08:35:38.457Z,14.65
2019-01-12T08:38:07.046Z,14.93
2019-01-12T08:40:36.130Z,12.95
2019-01-12T08:43:05.910Z,13.22
2019-01-12T08:45:34.408Z,13.03
2019-01-12T08:48:02.969Z,12.98
2019-01-12T08:50:31.985Z,13.75
2019-01-12T08:53:01.025Z,12.88
2019-01-12T08:55:30.412Z,11.88
2019-01-12T08:57:59.188Z,13.15
2019-01-12T09:00:30.848Z,12.43
2019-01-12T09:02:59.895Z,14.80
2019-01-12T09:05:29.023Z,14.00
2019-01-12T09:07:58.634Z,12.95
2019-01-12T09:10:27.548Z,11.60
2019-01-12T09:12:56.012Z,10.50
2019-01-12T09:15:24.595Z,11.12
2019-01-12T09:17:53.090Z,10.63
2019-01-12T09:20:21.985Z,10.55
2019-01-12T09:22:50.925Z,10.20
2019-01-12T09:25:19.324Z,11.28
2019-01-12T09:27:47.888Z,9.95
2019-01-12T09:30:19.055Z,9.95
2019-01-12T09:32:48.160Z,9.70
2019-01-12T09:35:17.650Z,8.00
2019-01-12T09:37:46.008Z,8.18
2019-01-12T09:40:17.207Z,7.90
2019-01-12T09:42:46.137Z,7.58
2019-01-12T09:45:15.469Z,6.08
2019-01-12T09:47:43.951Z,8.30
2019-01-12T09:50:15.710Z,7.25
2019-01-12T09:52:46.507Z,5.78
2019-01-12T09:55:14.897Z,5.75
2019-01-12T09:57:43.473Z,5.67
2019-01-12T10:00:25.638Z,5.90
2019-01-12T10:02:54.712Z,5.33
2019-01-12T10:05:23.385Z,5.40
2019-01-12T10:07:52.131Z,6.60
2019-01-12T10:10:21.054Z,6.37
2019-01-12T10:12:49.604Z,8.05
2019-01-12T10:15:18.316Z,7.40
2019-01-12T10:17:46.826Z,8.23
2019-01-12T10:20:17.162Z,6.00
2019-01-12T10:22:45.635Z,6.85
2019-01-12T10:25:15.227Z,5.35
2019-01-12T10:27:43.618Z,6.95
2019-01-12T10:30:23.543Z,6.22
2019-01-12T10:32:52.084Z,6.20
2019-01-12T10:35:20.460Z,6.47
2019-01-12T10:37:49.226Z,6.17
2019-01-12T10:40:18.284Z,6.33
2019-01-12T10:42:47.055Z,6.87
2019-01-12T10:45:17.429Z,6.43
2019-01-12T10:47:47.148Z,7.30
2019-01-12T10:50:19.776Z,6.40
2019-01-12T10:52:48.293Z,5.87
2019-01-12T10:55:17.061Z,5.70
2019-01-12T10:57:47.375Z,6.93
2019-01-12T11:00:30.252Z,6.30
2019-01-12T11:02:59.536Z,6.67
2019-01-12T11:05:27.966Z,5.10
2019-01-12T11:07:57.952Z,4.70
2019-01-12T11:10:26.415Z,5.60
2019-01-12T11:12:54.970Z,6.40
2019-01-12T11:15:23.556Z,6.33
2019-01-12T11:17:52.035Z,6.80
2019-01-12T11:20:20.422Z,6.77
2019-01-12T11:22:48.819Z,6.60
2019-01-12T11:25:17.367Z,5.80
2019-01-12T11:27:46.044Z,4.60
2019-01-12T11:30:16.590Z,5.27
2019-01-12T11:32:45.192Z,5.87
2019-01-12T11:35:14.348Z,4.07
2019-01-12T11:37:43.435Z,3.43
2019-01-12T11:40:18.297Z,4.00
2019-01-12T11:42:48.634Z,3.87
2019-01-12T11:45:17.304Z,4.57
2019-01-12T11:47:45.829Z,4.70
2019-01-12T11:50:14.935Z,4.23
2019-01-12T11:52:44.254Z,4.70
2019-01-12T11:55:14.317Z,6.47
2019-01-12T11:57:44.676Z,6.33
2019-01-12T12:00:29.430Z,5.73
2019-01-12T12:02:59.457Z,5.80
2019-01-12T12:05:27.936Z,7.30
2019-01-12T12:07:57.711Z,6.67
2019-01-12T12:10:26.188Z,6.27
2019-01-12T12:12:54.721Z,7.03
2019-01-12T12:15:23.539Z,6.90
2019-01-12T12:17:52.067Z,6.80
2019-01-12T12:20:23.784Z,5.33
2019-01-12T12:22:55.592Z,5.90
2019-01-12T12:25:24.294Z,6.50
2019-01-12T12:27:54.493Z,7.47
2019-01-12T12:30:26.565Z,6.70
2019-01-12T12:32:55.284Z,8.23
2019-01-12T12:35:24.088Z,7.20
2019-01-12T12:37:52.910Z,8.10
2019-01-12T12:40:21.969Z,7.10
2019-01-12T12:42:50.536Z,6.47
2019-01-12T12:45:26.128Z,7.67
2019-01-12T12:47:54.701Z,7.43
2019-01-12T12:50:23.288Z,9.17
2019-01-12T12:52:51.834Z,8.50
2019-01-12T12:55:20.319Z,8.83
2019-01-12T12:57:48.878Z,9.60
2019-01-12T13:00:26.713Z,8.17
2019-01-12T13:02:56.260Z,9.10
2019-01-12T13:05:24.954Z,9.30
2019-01-12T13:07:53.465Z,8.03
2019-01-12T13:10:30.187Z,8.70
2019-01-12T13:12:58.850Z,9.80
2019-01-12T13:15:27.224Z,9.83
2019-01-12T13:17:56.531Z,7.60
2019-01-12T13:20:24.927Z,9.03
2019-01-12T13:22:53.801Z,7.70
2019-01-12T13:25:22.483Z,8.90
2019-01-12T13:27:50.836Z,9.07
2019-01-12T13:30:22.981Z,8.70
2019-01-12T13:32:53.438Z,9.13
2019-01-12T13:35:22.023Z,10.13
2019-01-12T13:37:50.778Z,8.30
2019-01-12T13:40:23.109Z,8.73
2019-01-12T13:42:51.681Z,9.33
2019-01-12T13:45:20.330Z,9.20
2019-01-12T13:47:48.772Z,8.70
2019-01-12T13:50:20.321Z,7.90
2019-01-12T13:52:49.130Z,8.10
2019-01-12T13:55:17.507Z,9.33
2019-01-12T13:57:48.223Z,8.77
2019-01-12T14:00:34.154Z,8.73
2019-01-12T14:03:04.670Z,9.20
2019-01-12T14:05:33.119Z,9.57
2019-01-12T14:08:01.612Z,9.93
2019-01-12T14:10:30.200Z,8.70
2019-01-12T14:12:58.633Z,8.27
2019-01-12T14:15:27.315Z,8.10
2019-01-12T14:17:55.796Z,9.07
2019-01-12T14:20:36.602Z,9.27
2019-01-12T14:23:05.518Z,9.00
2019-01-12T14:25:34.398Z,9.60
2019-01-12T14:28:02.781Z,10.30
2019-01-12T14:30:31.470Z,9.37
2019-01-12T14:33:00.275Z,9.23
2019-01-12T14:35:28.760Z,11.67
2019-01-12T14:37:57.810Z,10.40
2019-01-12T14:40:26.814Z,10.27
2019-01-12T14:42:56.416Z,10.27
2019-01-12T14:45:30.868Z,9.90
2019-01-12T14:47:59.480Z,8.60
2019-01-12T14:50:28.151Z,10.10
2019-01-12T14:52:56.662Z,12.40
2019-01-12T14:55:25.145Z,11.43
2019-01-12T14:58:01.559Z,12.57
2019-01-12T15:00:31.485Z,11.97
2019-01-12T15:03:00.179Z,10.40
2019-01-12T15:05:31.188Z,9.70
2019-01-12T15:08:00.632Z,11.90
2019-01-12T15:10:31.029Z,10.40
2019-01-12T15:12:59.496Z,11.67
2019-01-12T15:15:28.232Z,11.93
2019-01-12T15:17:57.129Z,11.90
2019-01-12T15:20:27.917Z,11.77
2019-01-12T15:22:56.308Z,11.63
2019-01-12T15:25:25.536Z,9.83
2019-01-12T15:27:54.174Z,11.00
2019-01-12T15:30:25.641Z,11.70
2019-01-12T15:32:54.364Z,10.87
2019-01-12T15:35:25.356Z,10.70
2019-01-12T15:37:53.855Z,12.17
2019-01-12T15:40:22.449Z,9.93
2019-01-12T15:42:51.031Z,11.77
2019-01-12T15:45:22.132Z,11.20
2019-01-12T15:47:51.656Z,9.83
2019-01-12T15:50:22.908Z,12.43
2019-01-12T15:52:51.606Z,11.35
2019-01-12T15:55:20.412Z,11.12
2019-01-12T15:57:48.792Z,12.82
2019-01-12T16:00:32.488Z,11.48
2019-01-12T16:03:01.990Z,12.35
2019-01-12T16:05:31.139Z,9.28
2019-01-12T16:07:59.841Z,12.30
2019-01-12T16:10:30.752Z,9.78
2019-01-12T16:13:00.863Z,11.75
2019-01-12T16:15:31.689Z,13.50
2019-01-12T16:18:00.254Z,13.48
2019-01-12T16:20:39.951Z,14.00
2019-01-12T16:23:12.939Z,18.98
2019-01-12T16:25:43.862Z,23.90
2019-01-12T16:28:12.887Z,19.98
2019-01-12T16:30:43.375Z,19.52
2019-01-12T16:33:13.855Z,18.45
2019-01-12T16:35:42.434Z,17.23
2019-01-12T16:38:11.333Z,18.45
2019-01-12T16:40:39.748Z,19.40
2019-01-12T16:43:08.780Z,19.25
2019-01-12T16:45:37.178Z,18.50
2019-01-12T16:48:05.587Z,18.57
2019-01-12T16:50:34.094Z,20.20
2019-01-12T16:53:02.914Z,18.15
2019-01-12T16:55:31.529Z,19.75
2019-01-12T16:58:00.042Z,20.30
2019-01-12T17:00:30.714Z,19.55
2019-01-12T17:03:00.807Z,22.70
2019-01-12T17:05:29.425Z,24.35
2019-01-12T17:07:58.129Z,26.17
2019-01-12T17:10:27.464Z,23.05
2019-01-12T17:12:56.001Z,22.95
2019-01-12T17:15:24.579Z,22.17
2019-01-12T17:17:54.248Z,20.92
2019-01-12T17:20:25.644Z,20.23
2019-01-12T17:23:00.556Z,20.82
2019-01-12T17:25:29.401Z,20.50
2019-01-12T17:27:58.111Z,21.95
2019-01-12T17:30:33.251Z,20.75
2019-01-12T17:33:02.124Z,20.12
2019-01-12T17:35:30.699Z,18.80
2019-01-12T17:37:59.558Z,18.12
2019-01-12T17:40:29.057Z,19.02
2019-01-12T17:42:59.338Z,19.57
2019-01-12T17:45:28.060Z,18.05
2019-01-12T17:47:57.442Z,17.85
2019-01-12T17:50:27.543Z,21.97
2019-01-12T17:52:56.260Z,29.12
2019-01-12T17:55:26.304Z,30.88
2019-01-12T17:57:56.519Z,29.20
2019-01-12T18:00:35.106Z,28.52
2019-01-12T18:03:03.698Z,24.87
2019-01-12T18:05:32.081Z,25.82
2019-01-12T18:08:00.563Z,23.52
2019-01-12T18:10:30.465Z,26.35
2019-01-12T18:12:59.352Z,23.57
2019-01-12T18:15:27.748Z,25.43
2019-01-12T18:17:56.127Z,26.05
2019-01-12T18:20:24.499Z,23.35
2019-01-12T18:22:52.914Z,24.02
2019-01-12T18:25:21.287Z,26.05
2019-01-12T18:27:49.691Z,30.97
2019-01-12T18:30:19.467Z,29.70
2019-01-12T18:32:49.617Z,26.97
2019-01-12T18:35:18.108Z,27.40
2019-01-12T18:37:47.701Z,28.25
2019-01-12T18:40:17.293Z,26.50
2019-01-12T18:42:45.978Z,25.20
2019-01-12T18:45:17.007Z,24.55
2019-01-12T18:47:45.498Z,27.00
2019-01-12T18:50:17.635Z,27.75
2019-01-12T18:52:46.306Z,24.23
2019-01-12T18:55:14.821Z,24.18
2019-01-12T18:57:43.183Z,20.88
2019-01-12T19:00:19.421Z,19.85
2019-01-12T19:02:49.788Z,20.50
2019-01-12T19:05:20.100Z,18.52
2019-01-12T19:07:48.578Z,22.15
2019-01-12T19:10:17.065Z,20.48
2019-01-12T19:12:45.570Z,23.35
2019-01-12T19:15:24.087Z,23.27
2019-01-12T19:17:52.789Z,20.68
2019-01-12T19:20:21.477Z,21.62
2019-01-12T19:22:50.161Z,23.32
2019-01-12T19:25:18.976Z,22.37
2019-01-12T19:27:47.474Z,25.17
2019-01-12T19:30:19.677Z,27.15
2019-01-12T19:32:48.169Z,24.77
2019-01-12T19:35:16.649Z,24.43
2019-01-12T19:37:45.301Z,25.62
2019-01-12T19:40:22.328Z,24.82
2019-01-12T19:42:50.869Z,24.92
2019-01-12T19:45:21.060Z,24.85
2019-01-12T19:47:49.449Z,27.58
2019-01-12T19:50:21.357Z,25.23
2019-01-12T19:52:51.121Z,29.57
2019-01-12T19:55:20.970Z,29.63
2019-01-12T19:57:49.466Z,27.80
2019-01-12T20:00:29.440Z,25.90
2019-01-12T20:02:58.011Z,25.77
2019-01-12T20:05:26.479Z,26.30
2019-01-12T20:07:54.863Z,25.02
2019-01-12T20:10:23.628Z,25.62
2019-01-12T20:12:55.893Z,22.13
2019-01-12T20:15:25.153Z,23.00
2019-01-12T20:17:55.260Z,23.50
2019-01-12T20:20:23.629Z,22.60
2019-01-12T20:22:53.296Z,23.07
2019-01-12T20:25:25.652Z,23.62
2019-01-12T20:27:54.024Z,25.17
2019-01-12T20:30:55.812Z,24.23
2019-01-12T20:34:18.133Z,25.30
2019-01-12T20:38:09.601Z,25.60
2019-01-12T20:42:09.447Z,26.48
2019-01-12T20:45:37.387Z,25.37
2019-01-12T20:48:53.821Z,24.57
2019-01-12T20:52:34.875Z,23.15
2019-01-12T20:55:49.849Z,20.50
2019-01-12T20:59:28.263Z,21.45
2019-01-12T21:03:29.266Z,22.37
2019-01-12T21:06:27.190Z,23.35
2019-01-12T21:09:49.299Z,19.77
2019-01-12T21:13:19.487Z,20.52
2019-01-12T21:15:56.556Z,21.40
2019-01-12T21:18:25.228Z,21.02
2019-01-12T21:20:53.698Z,20.85
2019-01-12T21:23:22.196Z,19.45
2019-01-12T21:25:50.623Z,20.20
2019-01-12T21:28:18.990Z,20.90
2019-01-12T21:30:47.347Z,22.30
2019-01-12T21:33:16.044Z,21.42
2019-01-12T21:35:44.516Z,20.65
2019-01-12T21:38:13.003Z,20.20
2019-01-12T21:40:41.369Z,20.35
2019-01-12T21:43:09.953Z,17.00
2019-01-12T21:45:39.944Z,17.73
2019-01-12T21:48:08.346Z,19.32
2019-01-12T21:50:36.707Z,18.02
2019-01-12T21:53:06.481Z,18.12
2019-01-12T21:55:34.878Z,21.10
2019-01-12T21:58:05.523Z,20.92
2019-01-12T22:00:34.001Z,23.55
2019-01-12T22:03:02.611Z,26.10
2019-01-12T22:05:30.974Z,26.37
2019-01-12T22:07:59.344Z,25.85
2019-01-12T22:10:28.027Z,24.45
2019-01-12T22:12:56.530Z,25.27
2019-01-12T22:15:25.303Z,25.60
2019-01-12T22:17:53.696Z,22.82
2019-01-12T22:20:22.364Z,22.62
2019-01-12T22:22:50.767Z,23.42
2019-01-12T22:25:19.278Z,25.17
2019-01-12T22:27:47.733Z,27.00
2019-01-12T22:30:17.195Z,23.35
2019-01-12T22:32:46.090Z,28.07
2019-01-12T22:35:14.556Z,26.25
2019-01-12T22:37:42.945Z,25.15
2019-01-12T22:40:18.586Z,25.85
2019-01-12T22:42:47.315Z,24.37
2019-01-12T22:45:15.793Z,26.73
2019-01-12T22:47:44.378Z,24.90
2019-01-12T22:50:13.924Z,25.25
2019-01-12T22:52:42.673Z,24.00
2019-01-12T22:55:11.783Z,24.20
2019-01-12T22:57:40.260Z,24.07
2019-01-12T23:00:52.870Z,27.75
2019-01-12T23:03:21.456Z,25.90
2019-01-12T23:05:50.196Z,26.25
2019-01-12T23:08:18.878Z,24.45
2019-01-12T23:10:49.058Z,25.60
2019-01-12T23:13:17.523Z,28.25
2019-01-12T23:15:46.088Z,26.85
2019-01-12T23:18:15.781Z,27.93
2019-01-12T23:20:44.240Z,28.30
2019-01-12T23:23:12.682Z,28.62
2019-01-12T23:25:41.038Z,27.50
2019-01-12T23:28:09.529Z,31.42
2019-01-12T23:30:38.091Z,27.58
2019-01-12T23:33:07.518Z,28.73
2019-01-12T23:35:36.783Z,29.30
2019-01-12T23:38:05.369Z,29.72
2019-01-12T23:40:35.552Z,28.80
2019-01-12T23:43:04.214Z,26.95
2019-01-12T23:45:32.660Z,27.77
2019-01-12T23:48:02.046Z,28.15
2019-01-12T23:50:32.309Z,26.82
2019-01-12T23:53:00.695Z,27.80
2019-01-12T23:55:30.862Z,26.37
2019-01-12T23:57:59.233Z,27.30
